Terminal Aerodrome Forecast
Issued by NWS Charleston, WV

Current Version | Previous Version | Text Only | Print | Product List | Glossary Off
Versions: 1 2 3 4 5 6 7 8 9 10 11 12 13 14 15 16 17 18 19 20 21 22 23 24 25 26 27 28

000
FTUS41 KRLX 282059 AAA
TAFEKN
TAF AMD
KEKN 282059Z 2821/2918 VRB03KT P6SM VCTS BKN040CB
     FM290200 00000KT P6SM BKN040
     FM290900 VRB03KT 6SM BR BKN040
     FM291500 VRB03KT P6SM VCTS BKN040CB=

USA.gov is the U.S. government's official web portal to all federal, state and local government web resources and services.